sensor_id;sensor_type;location;lat;lon;timestamp;P1;P2;P0
47741;PMS5003;33504;52.066;6.096;2023-01-16T00:00:01;4;3;
47741;PMS5003;33504;52.066;6.096;2023-01-16T00:02:29;2;2;
47741;PMS5003;33504;52.066;6.096;2023-01-16T00:04:56;3;3;
47741;PMS5003;33504;52.066;6.096;2023-01-16T00:07:23;7;5;
47741;PMS5003;33504;52.066;6.096;2023-01-16T00:09:50;4;4;
47741;PMS5003;33504;52.066;6.096;2023-01-16T00:12:17;5;4;
47741;PMS5003;33504;52.066;6.096;2023-01-16T00:14:44;4;4;
47741;PMS5003;33504;52.066;6.096;2023-01-16T00:17:11;4;4;
47741;PMS5003;33504;52.066;6.096;2023-01-16T00:19:38;6;5;
47741;PMS5003;33504;52.066;6.096;2023-01-16T00:22:05;5;5;
47741;PMS5003;33504;52.066;6.096;2023-01-16T00:24:31;6;5;
47741;PMS5003;33504;52.066;6.096;2023-01-16T00:26:58;4;4;
47741;PMS5003;33504;52.066;6.096;2023-01-16T00:29:25;4;4;
47741;PMS5003;33504;52.066;6.096;2023-01-16T00:31:52;4;3;
47741;PMS5003;33504;52.066;6.096;2023-01-16T00:34:19;6;5;
47741;PMS5003;33504;52.066;6.096;2023-01-16T00:36:46;6;6;
47741;PMS5003;33504;52.066;6.096;2023-01-16T00:39:13;5;5;
47741;PMS5003;33504;52.066;6.096;2023-01-16T00:41:40;6;6;
47741;PMS5003;33504;52.066;6.096;2023-01-16T00:44:07;6;4;
47741;PMS5003;33504;52.066;6.096;2023-01-16T00:46:34;5;5;
47741;PMS5003;33504;52.066;6.096;2023-01-16T00:49:01;7;6;
47741;PMS5003;33504;52.066;6.096;2023-01-16T00:51:27;7;6;
47741;PMS5003;33504;52.066;6.096;2023-01-16T00:53:55;6;6;
47741;PMS5003;33504;52.066;6.096;2023-01-16T00:56:21;8;7;
47741;PMS5003;33504;52.066;6.096;2023-01-16T00:58:48;10;9;
47741;PMS5003;33504;52.066;6.096;2023-01-16T01:01:15;9;8;
47741;PMS5003;33504;52.066;6.096;2023-01-16T01:03:42;10;10;
47741;PMS5003;33504;52.066;6.096;2023-01-16T01:06:10;8;8;
47741;PMS5003;33504;52.066;6.096;2023-01-16T01:08:37;9;9;
47741;PMS5003;33504;52.066;6.096;2023-01-16T01:11:06;8;8;
47741;PMS5003;33504;52.066;6.096;2023-01-16T01:13:35;10;10;
47741;PMS5003;33504;52.066;6.096;2023-01-16T01:16:03;12;11;
47741;PMS5003;33504;52.066;6.096;2023-01-16T01:18:31;13;13;
47741;PMS5003;33504;52.066;6.096;2023-01-16T01:20:58;11;11;
47741;PMS5003;33504;52.066;6.096;2023-01-16T01:23:26;12;12;
47741;PMS5003;33504;52.066;6.096;2023-01-16T01:25:53;15;14;
47741;PMS5003;33504;52.066;6.096;2023-01-16T01:28:20;18;17;
47741;PMS5003;33504;52.066;6.096;2023-01-16T01:30:47;15;15;
47741;PMS5003;33504;52.066;6.096;2023-01-16T01:33:14;18;16;
47741;PMS5003;33504;52.066;6.096;2023-01-16T01:35:42;15;14;
47741;PMS5003;33504;52.066;6.096;2023-01-16T01:38:09;22;22;
47741;PMS5003;33504;52.066;6.096;2023-01-16T01:40:36;20;19;
47741;PMS5003;33504;52.066;6.096;2023-01-16T01:43:08;20;19;
47741;PMS5003;33504;52.066;6.096;2023-01-16T01:45:38;18;18;
47741;PMS5003;33504;52.066;6.096;2023-01-16T01:48:12;20;19;
47741;PMS5003;33504;52.066;6.096;2023-01-16T01:50:45;22;19;
47741;PMS5003;33504;52.066;6.096;2023-01-16T01:53:17;18;17;
47741;PMS5003;33504;52.066;6.096;2023-01-16T01:55:48;16;16;
47741;PMS5003;33504;52.066;6.096;2023-01-16T01:58:18;17;16;
47741;PMS5003;33504;52.066;6.096;2023-01-16T02:00:49;13;13;
47741;PMS5003;33504;52.066;6.096;2023-01-16T02:03:19;14;14;
47741;PMS5003;33504;52.066;6.096;2023-01-16T02:05:49;13;12;
47741;PMS5003;33504;52.066;6.096;2023-01-16T02:08:16;15;14;
47741;PMS5003;33504;52.066;6.096;2023-01-16T02:10:45;15;15;
47741;PMS5003;33504;52.066;6.096;2023-01-16T02:13:16;14;13;
47741;PMS5003;33504;52.066;6.096;2023-01-16T02:15:43;14;14;
47741;PMS5003;33504;52.066;6.096;2023-01-16T02:18:10;10;10;
47741;PMS5003;33504;52.066;6.096;2023-01-16T02:20:41;9;9;
47741;PMS5003;33504;52.066;6.096;2023-01-16T02:23:56;14;13;
47741;PMS5003;33504;52.066;6.096;2023-01-16T02:27:18;13;12;
47741;PMS5003;33504;52.066;6.096;2023-01-16T02:31:06;9;9;
47741;PMS5003;33504;52.066;6.096;2023-01-16T02:33:45;10;9;
47741;PMS5003;33504;52.066;6.096;2023-01-16T02:36:26;8;7;
47741;PMS5003;33504;52.066;6.096;2023-01-16T02:39:05;10;7;
47741;PMS5003;33504;52.066;6.096;2023-01-16T02:41:38;6;6;
47741;PMS5003;33504;52.066;6.096;2023-01-16T02:44:17;7;7;
47741;PMS5003;33504;52.066;6.096;2023-01-16T02:46:56;7;6;
47741;PMS5003;33504;52.066;6.096;2023-01-16T02:49:33;9;7;
47741;PMS5003;33504;52.066;6.096;2023-01-16T02:52:08;7;6;
47741;PMS5003;33504;52.066;6.096;2023-01-16T02:54:41;6;6;
47741;PMS5003;33504;52.066;6.096;2023-01-16T02:57:13;7;6;
47741;PMS5003;33504;52.066;6.096;2023-01-16T02:59:43;8;8;
47741;PMS5003;33504;52.066;6.096;2023-01-16T03:02:11;5;5;
47741;PMS5003;33504;52.066;6.096;2023-01-16T03:04:39;5;5;
47741;PMS5003;33504;52.066;6.096;2023-01-16T03:07:15;7;6;
47741;PMS5003;33504;52.066;6.096;2023-01-16T03:10:00;7;6;
47741;PMS5003;33504;52.066;6.096;2023-01-16T03:12:40;5;5;
47741;PMS5003;33504;52.066;6.096;2023-01-16T03:15:21;4;3;
47741;PMS5003;33504;52.066;6.096;2023-01-16T03:17:56;4;4;
47741;PMS5003;33504;52.066;6.096;2023-01-16T03:20:39;4;4;
47741;PMS5003;33504;52.066;6.096;2023-01-16T03:23:19;4;4;
47741;PMS5003;33504;52.066;6.096;2023-01-16T03:25:53;5;4;
47741;PMS5003;33504;52.066;6.096;2023-01-16T03:28:29;6;5;
47741;PMS5003;33504;52.066;6.096;2023-01-16T03:31:04;5;4;
47741;PMS5003;33504;52.066;6.096;2023-01-16T03:33:40;4;4;
47741;PMS5003;33504;52.066;6.096;2023-01-16T03:36:13;5;3;
47741;PMS5003;33504;52.066;6.096;2023-01-16T03:38:47;6;4;
47741;PMS5003;33504;52.066;6.096;2023-01-16T03:41:18;8;6;
47741;PMS5003;33504;52.066;6.096;2023-01-16T03:43:50;5;5;
47741;PMS5003;33504;52.066;6.096;2023-01-16T03:46:23;6;5;
47741;PMS5003;33504;52.066;6.096;2023-01-16T03:48:53;6;6;
47741;PMS5003;33504;52.066;6.096;2023-01-16T03:51:26;11;8;
47741;PMS5003;33504;52.066;6.096;2023-01-16T03:53:57;4;4;
47741;PMS5003;33504;52.066;6.096;2023-01-16T03:56:31;7;6;
47741;PMS5003;33504;52.066;6.096;2023-01-16T03:59:03;7;6;
47741;PMS5003;33504;52.066;6.096;2023-01-16T04:01:34;7;6;
47741;PMS5003;33504;52.066;6.096;2023-01-16T04:04:06;6;6;
47741;PMS5003;33504;52.066;6.096;2023-01-16T04:06:37;7;7;
47741;PMS5003;33504;52.066;6.096;2023-01-16T04:09:13;6;6;
47741;PMS5003;33504;52.066;6.096;2023-01-16T04:11:46;5;5;
47741;PMS5003;33504;52.066;6.096;2023-01-16T04:14:16;7;7;
47741;PMS5003;33504;52.066;6.096;2023-01-16T04:16:47;6;6;
47741;PMS5003;33504;52.066;6.096;2023-01-16T04:19:15;9;9;
47741;PMS5003;33504;52.066;6.096;2023-01-16T04:21:45;8;8;
47741;PMS5003;33504;52.066;6.096;2023-01-16T04:24:13;7;6;
47741;PMS5003;33504;52.066;6.096;2023-01-16T04:26:40;6;5;
47741;PMS5003;33504;52.066;6.096;2023-01-16T04:29:07;5;5;
47741;PMS5003;33504;52.066;6.096;2023-01-16T04:31:34;7;5;
47741;PMS5003;33504;52.066;6.096;2023-01-16T04:34:01;3;3;
47741;PMS5003;33504;52.066;6.096;2023-01-16T04:36:28;4;4;
47741;PMS5003;33504;52.066;6.096;2023-01-16T04:38:55;4;4;
47741;PMS5003;33504;52.066;6.096;2023-01-16T04:41:22;6;5;
47741;PMS5003;33504;52.066;6.096;2023-01-16T04:43:48;4;4;
47741;PMS5003;33504;52.066;6.096;2023-01-16T04:46:15;3;3;
47741;PMS5003;33504;52.066;6.096;2023-01-16T04:48:42;7;4;
47741;PMS5003;33504;52.066;6.096;2023-01-16T04:51:09;4;4;
47741;PMS5003;33504;52.066;6.096;2023-01-16T04:53:36;5;4;
47741;PMS5003;33504;52.066;6.096;2023-01-16T04:56:04;3;3;
47741;PMS5003;33504;52.066;6.096;2023-01-16T04:58:31;3;3;
47741;PMS5003;33504;52.066;6.096;2023-01-16T05:00:58;4;4;
47741;PMS5003;33504;52.066;6.096;2023-01-16T05:03:25;6;6;
47741;PMS5003;33504;52.066;6.096;2023-01-16T05:05:52;10;10;
47741;PMS5003;33504;52.066;6.096;2023-01-16T05:08:19;9;7;
47741;PMS5003;33504;52.066;6.096;2023-01-16T05:10:46;6;6;
47741;PMS5003;33504;52.066;6.096;2023-01-16T05:13:13;8;7;
47741;PMS5003;33504;52.066;6.096;2023-01-16T05:15:42;6;5;
47741;PMS5003;33504;52.066;6.096;2023-01-16T05:18:09;7;6;
47741;PMS5003;33504;52.066;6.096;2023-01-16T05:20:36;5;5;
47741;PMS5003;33504;52.066;6.096;2023-01-16T05:23:03;9;8;
47741;PMS5003;33504;52.066;6.096;2023-01-16T05:25:30;8;6;
47741;PMS5003;33504;52.066;6.096;2023-01-16T05:27:58;7;6;
47741;PMS5003;33504;52.066;6.096;2023-01-16T05:30:25;8;7;
47741;PMS5003;33504;52.066;6.096;2023-01-16T05:32:52;7;7;
47741;PMS5003;33504;52.066;6.096;2023-01-16T05:35:19;5;5;
47741;PMS5003;33504;52.066;6.096;2023-01-16T05:37:46;6;6;
47741;PMS5003;33504;52.066;6.096;2023-01-16T05:40:13;5;5;
47741;PMS5003;33504;52.066;6.096;2023-01-16T05:42:41;8;7;
47741;PMS5003;33504;52.066;6.096;2023-01-16T05:45:09;7;6;
47741;PMS5003;33504;52.066;6.096;2023-01-16T05:47:37;6;6;
47741;PMS5003;33504;52.066;6.096;2023-01-16T05:50:04;6;5;
47741;PMS5003;33504;52.066;6.096;2023-01-16T05:52:31;8;7;
47741;PMS5003;33504;52.066;6.096;2023-01-16T05:54:59;5;5;
47741;PMS5003;33504;52.066;6.096;2023-01-16T05:57:26;9;7;
47741;PMS5003;33504;52.066;6.096;2023-01-16T05:59:53;7;6;
47741;PMS5003;33504;52.066;6.096;2023-01-16T06:02:20;9;9;
47741;PMS5003;33504;52.066;6.096;2023-01-16T06:04:47;7;7;
47741;PMS5003;33504;52.066;6.096;2023-01-16T06:07:14;5;5;
47741;PMS5003;33504;52.066;6.096;2023-01-16T06:09:41;7;6;
47741;PMS5003;33504;52.066;6.096;2023-01-16T06:12:11;6;6;
47741;PMS5003;33504;52.066;6.096;2023-01-16T06:14:40;6;6;
47741;PMS5003;33504;52.066;6.096;2023-01-16T06:17:08;5;5;
47741;PMS5003;33504;52.066;6.096;2023-01-16T06:19:36;5;4;
47741;PMS5003;33504;52.066;6.096;2023-01-16T06:22:03;4;4;
47741;PMS5003;33504;52.066;6.096;2023-01-16T06:24:30;5;4;
47741;PMS5003;33504;52.066;6.096;2023-01-16T06:26:57;5;5;
47741;PMS5003;33504;52.066;6.096;2023-01-16T06:29:24;5;5;
47741;PMS5003;33504;52.066;6.096;2023-01-16T06:31:51;5;5;
47741;PMS5003;33504;52.066;6.096;2023-01-16T06:34:18;3;3;
47741;PMS5003;33504;52.066;6.096;2023-01-16T06:36:45;2;2;
47741;PMS5003;33504;52.066;6.096;2023-01-16T06:39:12;4;4;
47741;PMS5003;33504;52.066;6.096;2023-01-16T06:41:40;6;5;
47741;PMS5003;33504;52.066;6.096;2023-01-16T06:44:08;4;4;
47741;PMS5003;33504;52.066;6.096;2023-01-16T06:46:35;5;4;
47741;PMS5003;33504;52.066;6.096;2023-01-16T06:49:02;5;5;
47741;PMS5003;33504;52.066;6.096;2023-01-16T06:51:29;6;5;
47741;PMS5003;33504;52.066;6.096;2023-01-16T06:53:56;6;6;
47741;PMS5003;33504;52.066;6.096;2023-01-16T06:56:23;6;6;
47741;PMS5003;33504;52.066;6.096;2023-01-16T06:58:50;8;8;
47741;PMS5003;33504;52.066;6.096;2023-01-16T07:01:17;7;7;
47741;PMS5003;33504;52.066;6.096;2023-01-16T07:03:44;10;8;
47741;PMS5003;33504;52.066;6.096;2023-01-16T07:06:11;12;11;
47741;PMS5003;33504;52.066;6.096;2023-01-16T07:08:37;11;10;
47741;PMS5003;33504;52.066;6.096;2023-01-16T07:11:04;13;13;
47741;PMS5003;33504;52.066;6.096;2023-01-16T07:13:31;11;9;
47741;PMS5003;33504;52.066;6.096;2023-01-16T07:15:58;13;12;
47741;PMS5003;33504;52.066;6.096;2023-01-16T07:18:25;12;11;
47741;PMS5003;33504;52.066;6.096;2023-01-16T07:20:53;12;11;
47741;PMS5003;33504;52.066;6.096;2023-01-16T07:23:23;16;12;
47741;PMS5003;33504;52.066;6.096;2023-01-16T07:25:53;10;10;
47741;PMS5003;33504;52.066;6.096;2023-01-16T07:28:21;8;8;
47741;PMS5003;33504;52.066;6.096;2023-01-16T07:30:49;10;9;
47741;PMS5003;33504;52.066;6.096;2023-01-16T07:33:17;10;9;
47741;PMS5003;33504;52.066;6.096;2023-01-16T07:35:44;8;8;
47741;PMS5003;33504;52.066;6.096;2023-01-16T07:38:12;8;7;
47741;PMS5003;33504;52.066;6.096;2023-01-16T07:40:40;7;7;
47741;PMS5003;33504;52.066;6.096;2023-01-16T07:43:07;5;5;
47741;PMS5003;33504;52.066;6.096;2023-01-16T07:45:33;6;6;
47741;PMS5003;33504;52.066;6.096;2023-01-16T07:48:00;8;7;
47741;PMS5003;33504;52.066;6.096;2023-01-16T07:50:28;5;5;
47741;PMS5003;33504;52.066;6.096;2023-01-16T07:52:55;6;6;
47741;PMS5003;33504;52.066;6.096;2023-01-16T07:55:23;7;6;
47741;PMS5003;33504;52.066;6.096;2023-01-16T07:57:51;7;7;
47741;PMS5003;33504;52.066;6.096;2023-01-16T08:00:18;6;6;
47741;PMS5003;33504;52.066;6.096;2023-01-16T08:02:46;7;6;
47741;PMS5003;33504;52.066;6.096;2023-01-16T08:05:13;5;5;
47741;PMS5003;33504;52.066;6.096;2023-01-16T08:07:39;6;6;
47741;PMS5003;33504;52.066;6.096;2023-01-16T08:10:07;8;8;
47741;PMS5003;33504;52.066;6.096;2023-01-16T08:12:36;9;9;
47741;PMS5003;33504;52.066;6.096;2023-01-16T08:15:03;6;5;
47741;PMS5003;33504;52.066;6.096;2023-01-16T08:17:31;6;6;
47741;PMS5003;33504;52.066;6.096;2023-01-16T08:19:58;8;7;
47741;PMS5003;33504;52.066;6.096;2023-01-16T08:22:25;8;6;
47741;PMS5003;33504;52.066;6.096;2023-01-16T08:24:52;7;6;
47741;PMS5003;33504;52.066;6.096;2023-01-16T08:27:19;7;7;
47741;PMS5003;33504;52.066;6.096;2023-01-16T08:29:46;7;6;
47741;PMS5003;33504;52.066;6.096;2023-01-16T08:32:13;3;3;
47741;PMS5003;33504;52.066;6.096;2023-01-16T08:34:40;6;5;
47741;PMS5003;33504;52.066;6.096;2023-01-16T08:37:08;7;7;
47741;PMS5003;33504;52.066;6.096;2023-01-16T08:39:34;4;4;
47741;PMS5003;33504;52.066;6.096;2023-01-16T08:42:01;5;5;
47741;PMS5003;33504;52.066;6.096;2023-01-16T08:44:29;5;5;
47741;PMS5003;33504;52.066;6.096;2023-01-16T08:46:57;4;4;
47741;PMS5003;33504;52.066;6.096;2023-01-16T08:49:27;4;4;
47741;PMS5003;33504;52.066;6.096;2023-01-16T08:51:54;5;4;
47741;PMS5003;33504;52.066;6.096;2023-01-16T08:54:22;5;4;
47741;PMS5003;33504;52.066;6.096;2023-01-16T08:56:49;4;4;
47741;PMS5003;33504;52.066;6.096;2023-01-16T08:59:17;5;4;
47741;PMS5003;33504;52.066;6.096;2023-01-16T09:01:44;5;4;
47741;PMS5003;33504;52.066;6.096;2023-01-16T09:04:10;5;5;
47741;PMS5003;33504;52.066;6.096;2023-01-16T09:06:37;4;4;
47741;PMS5003;33504;52.066;6.096;2023-01-16T09:09:05;6;5;
47741;PMS5003;33504;52.066;6.096;2023-01-16T09:11:33;5;4;
47741;PMS5003;33504;52.066;6.096;2023-01-16T09:14:01;4;4;
47741;PMS5003;33504;52.066;6.096;2023-01-16T09:16:28;6;5;
47741;PMS5003;33504;52.066;6.096;2023-01-16T09:18:56;6;4;
47741;PMS5003;33504;52.066;6.096;2023-01-16T09:21:23;6;6;
47741;PMS5003;33504;52.066;6.096;2023-01-16T09:23:50;3;3;
47741;PMS5003;33504;52.066;6.096;2023-01-16T09:26:18;5;4;
47741;PMS5003;33504;52.066;6.096;2023-01-16T09:28:45;6;6;
47741;PMS5003;33504;52.066;6.096;2023-01-16T09:31:12;7;6;
47741;PMS5003;33504;52.066;6.096;2023-01-16T09:33:39;6;4;
47741;PMS5003;33504;52.066;6.096;2023-01-16T09:36:06;8;6;
47741;PMS5003;33504;52.066;6.096;2023-01-16T09:38:34;4;4;
47741;PMS5003;33504;52.066;6.096;2023-01-16T09:41:01;7;6;
47741;PMS5003;33504;52.066;6.096;2023-01-16T09:43:32;6;6;
47741;PMS5003;33504;52.066;6.096;2023-01-16T09:46:03;7;6;
47741;PMS5003;33504;52.066;6.096;2023-01-16T09:48:36;7;7;
47741;PMS5003;33504;52.066;6.096;2023-01-16T09:51:11;9;8;
47741;PMS5003;33504;52.066;6.096;2023-01-16T09:53:44;8;8;
47741;PMS5003;33504;52.066;6.096;2023-01-16T09:56:14;9;9;
47741;PMS5003;33504;52.066;6.096;2023-01-16T09:58:43;8;7;
47741;PMS5003;33504;52.066;6.096;2023-01-16T10:01:16;10;7;
47741;PMS5003;33504;52.066;6.096;2023-01-16T10:03:49;8;6;
47741;PMS5003;33504;52.066;6.096;2023-01-16T10:06:19;7;6;
47741;PMS5003;33504;52.066;6.096;2023-01-16T10:08:54;8;6;
47741;PMS5003;33504;52.066;6.096;2023-01-16T10:11:30;8;7;
47741;PMS5003;33504;52.066;6.096;2023-01-16T10:14:07;5;5;
47741;PMS5003;33504;52.066;6.096;2023-01-16T10:16:50;5;5;
47741;PMS5003;33504;52.066;6.096;2023-01-16T10:19:33;6;6;
47741;PMS5003;33504;52.066;6.096;2023-01-16T10:22:16;7;6;
47741;PMS5003;33504;52.066;6.096;2023-01-16T10:24:55;6;6;
47741;PMS5003;33504;52.066;6.096;2023-01-16T10:27:33;5;5;
47741;PMS5003;33504;52.066;6.096;2023-01-16T10:30:08;8;6;
47741;PMS5003;33504;52.066;6.096;2023-01-16T10:32:42;6;5;
47741;PMS5003;33504;52.066;6.096;2023-01-16T10:35:14;6;6;
47741;PMS5003;33504;52.066;6.096;2023-01-16T10:37:46;6;6;
47741;PMS5003;33504;52.066;6.096;2023-01-16T10:40:15;6;5;
47741;PMS5003;33504;52.066;6.096;2023-01-16T10:42:46;4;4;
47741;PMS5003;33504;52.066;6.096;2023-01-16T10:45:21;5;4;
47741;PMS5003;33504;52.066;6.096;2023-01-16T10:47:51;5;5;
47741;PMS5003;33504;52.066;6.096;2023-01-16T10:50:18;6;6;
47741;PMS5003;33504;52.066;6.096;2023-01-16T10:52:47;6;5;
47741;PMS5003;33504;52.066;6.096;2023-01-16T10:55:15;7;6;
47741;PMS5003;33504;52.066;6.096;2023-01-16T10:57:44;6;6;
47741;PMS5003;33504;52.066;6.096;2023-01-16T11:00:17;5;5;
47741;PMS5003;33504;52.066;6.096;2023-01-16T11:02:47;6;5;
47741;PMS5003;33504;52.066;6.096;2023-01-16T11:05:22;5;5;
47741;PMS5003;33504;52.066;6.096;2023-01-16T11:07:52;4;4;
47741;PMS5003;33504;52.066;6.096;2023-01-16T11:10:20;6;5;
47741;PMS5003;33504;52.066;6.096;2023-01-16T11:12:48;4;4;
47741;PMS5003;33504;52.066;6.096;2023-01-16T11:15:19;4;4;
47741;PMS5003;33504;52.066;6.096;2023-01-16T11:17:50;5;5;
47741;PMS5003;33504;52.066;6.096;2023-01-16T11:20:20;4;4;
47741;PMS5003;33504;52.066;6.096;2023-01-16T11:22:54;6;5;
47741;PMS5003;33504;52.066;6.096;2023-01-16T11:25:23;5;5;
47741;PMS5003;33504;52.066;6.096;2023-01-16T11:27:52;3;3;
47741;PMS5003;33504;52.066;6.096;2023-01-16T11:30:27;2;2;
47741;PMS5003;33504;52.066;6.096;2023-01-16T11:32:57;4;4;
47741;PMS5003;33504;52.066;6.096;2023-01-16T11:35:29;5;4;
47741;PMS5003;33504;52.066;6.096;2023-01-16T11:37:59;4;3;
47741;PMS5003;33504;52.066;6.096;2023-01-16T11:40:27;5;5;
47741;PMS5003;33504;52.066;6.096;2023-01-16T11:42:58;3;3;
47741;PMS5003;33504;52.066;6.096;2023-01-16T11:45:32;3;3;
47741;PMS5003;33504;52.066;6.096;2023-01-16T11:48:00;3;3;
47741;PMS5003;33504;52.066;6.096;2023-01-16T11:50:29;5;5;
47741;PMS5003;33504;52.066;6.096;2023-01-16T11:52:58;4;3;
47741;PMS5003;33504;52.066;6.096;2023-01-16T11:55:29;4;4;
47741;PMS5003;33504;52.066;6.096;2023-01-16T11:58:03;3;3;
47741;PMS5003;33504;52.066;6.096;2023-01-16T12:00:39;3;3;
47741;PMS5003;33504;52.066;6.096;2023-01-16T12:03:53;3;2;
47741;PMS5003;33504;52.066;6.096;2023-01-16T12:06:35;3;2;
47741;PMS5003;33504;52.066;6.096;2023-01-16T12:09:29;2;2;
47741;PMS5003;33504;52.066;6.096;2023-01-16T12:12:09;2;2;
47741;PMS5003;33504;52.066;6.096;2023-01-16T12:14:45;3;2;
47741;PMS5003;33504;52.066;6.096;2023-01-16T12:17:22;2;2;
47741;PMS5003;33504;52.066;6.096;2023-01-16T12:20:02;2;2;
47741;PMS5003;33504;52.066;6.096;2023-01-16T12:22:38;3;3;
47741;PMS5003;33504;52.066;6.096;2023-01-16T12:25:18;3;3;
47741;PMS5003;33504;52.066;6.096;2023-01-16T12:27:57;1;1;
47741;PMS5003;33504;52.066;6.096;2023-01-16T12:30:36;3;2;
47741;PMS5003;33504;52.066;6.096;2023-01-16T12:33:13;4;3;
47741;PMS5003;33504;52.066;6.096;2023-01-16T12:35:52;2;2;
47741;PMS5003;33504;52.066;6.096;2023-01-16T12:38:26;1;1;
47741;PMS5003;33504;52.066;6.096;2023-01-16T12:41:02;2;2;
47741;PMS5003;33504;52.066;6.096;2023-01-16T12:43:41;2;2;
47741;PMS5003;33504;52.066;6.096;2023-01-16T12:46:17;2;2;
47741;PMS5003;33504;52.066;6.096;2023-01-16T12:48:56;3;3;
47741;PMS5003;33504;52.066;6.096;2023-01-16T12:51:35;2;2;
47741;PMS5003;33504;52.066;6.096;2023-01-16T12:54:19;2;2;
47741;PMS5003;33504;52.066;6.096;2023-01-16T12:57:03;3;2;
47741;PMS5003;33504;52.066;6.096;2023-01-16T12:59:42;2;2;
47741;PMS5003;33504;52.066;6.096;2023-01-16T13:02:16;2;2;
47741;PMS5003;33504;52.066;6.096;2023-01-16T13:04:50;3;3;
47741;PMS5003;33504;52.066;6.096;2023-01-16T13:07:21;2;2;
47741;PMS5003;33504;52.066;6.096;2023-01-16T13:09:54;3;3;
47741;PMS5003;33504;52.066;6.096;2023-01-16T13:12:38;2;2;
47741;PMS5003;33504;52.066;6.096;2023-01-16T13:15:06;1;1;
47741;PMS5003;33504;52.066;6.096;2023-01-16T13:17:40;2;2;
47741;PMS5003;33504;52.066;6.096;2023-01-16T13:20:13;3;2;
47741;PMS5003;33504;52.066;6.096;2023-01-16T13:22:46;1;1;
47741;PMS5003;33504;52.066;6.096;2023-01-16T13:25:18;2;2;
47741;PMS5003;33504;52.066;6.096;2023-01-16T13:27:52;3;3;
47741;PMS5003;33504;52.066;6.096;2023-01-16T13:30:22;2;2;
47741;PMS5003;33504;52.066;6.096;2023-01-16T13:32:50;4;4;
47741;PMS5003;33504;52.066;6.096;2023-01-16T13:35:22;3;2;
47741;PMS5003;33504;52.066;6.096;2023-01-16T13:37:55;2;2;
47741;PMS5003;33504;52.066;6.096;2023-01-16T13:40:48;5;4;
47741;PMS5003;33504;52.066;6.096;2023-01-16T13:43:26;2;2;
47741;PMS5003;33504;52.066;6.096;2023-01-16T13:45:58;4;4;
47741;PMS5003;33504;52.066;6.096;2023-01-16T13:48:27;2;2;
47741;PMS5003;33504;52.066;6.096;2023-01-16T13:50:57;3;3;
47741;PMS5003;33504;52.066;6.096;2023-01-16T13:53:26;1;1;
47741;PMS5003;33504;52.066;6.096;2023-01-16T13:56:05;2;1;
47741;PMS5003;33504;52.066;6.096;2023-01-16T13:58:37;2;2;
47741;PMS5003;33504;52.066;6.096;2023-01-16T14:01:06;4;4;
47741;PMS5003;33504;52.066;6.096;2023-01-16T14:04:09;3;3;
47741;PMS5003;33504;52.066;6.096;2023-01-16T14:06:51;2;2;
47741;PMS5003;33504;52.066;6.096;2023-01-16T14:09:20;2;2;
47741;PMS5003;33504;52.066;6.096;2023-01-16T14:12:17;3;3;
47741;PMS5003;33504;52.066;6.096;2023-01-16T14:14:47;2;2;
47741;PMS5003;33504;52.066;6.096;2023-01-16T14:17:16;4;4;
47741;PMS5003;33504;52.066;6.096;2023-01-16T14:20:01;4;4;
47741;PMS5003;33504;52.066;6.096;2023-01-16T14:22:33;4;4;
47741;PMS5003;33504;52.066;6.096;2023-01-16T14:25:06;5;5;
47741;PMS5003;33504;52.066;6.096;2023-01-16T14:27:43;4;4;
47741;PMS5003;33504;52.066;6.096;2023-01-16T14:30:16;6;5;
47741;PMS5003;33504;52.066;6.096;2023-01-16T14:30:20;6;5;
47741;PMS5003;33504;52.066;6.096;2023-01-16T14:32:51;6;6;
47741;PMS5003;33504;52.066;6.096;2023-01-16T14:35:21;6;6;
47741;PMS5003;33504;52.066;6.096;2023-01-16T14:37:54;6;5;
47741;PMS5003;33504;52.066;6.096;2023-01-16T14:40:25;6;6;
47741;PMS5003;33504;52.066;6.096;2023-01-16T14:42:55;6;6;
47741;PMS5003;33504;52.066;6.096;2023-01-16T14:45:25;7;7;
47741;PMS5003;33504;52.066;6.096;2023-01-16T14:47:55;8;7;
47741;PMS5003;33504;52.066;6.096;2023-01-16T14:50:39;8;8;
47741;PMS5003;33504;52.066;6.096;2023-01-16T14:53:13;7;7;
47741;PMS5003;33504;52.066;6.096;2023-01-16T14:55:47;8;8;
47741;PMS5003;33504;52.066;6.096;2023-01-16T14:58:20;5;4;
47741;PMS5003;33504;52.066;6.096;2023-01-16T15:00:54;8;8;
47741;PMS5003;33504;52.066;6.096;2023-01-16T15:03:26;6;6;
47741;PMS5003;33504;52.066;6.096;2023-01-16T15:05:56;5;5;
47741;PMS5003;33504;52.066;6.096;2023-01-16T15:08:25;8;8;
47741;PMS5003;33504;52.066;6.096;2023-01-16T15:10:55;9;9;
47741;PMS5003;33504;52.066;6.096;2023-01-16T15:13:28;9;8;
47741;PMS5003;33504;52.066;6.096;2023-01-16T15:15:58;9;7;
47741;PMS5003;33504;52.066;6.096;2023-01-16T15:18:27;5;5;
47741;PMS5003;33504;52.066;6.096;2023-01-16T15:20:54;8;7;
47741;PMS5003;33504;52.066;6.096;2023-01-16T15:23:22;9;9;
47741;PMS5003;33504;52.066;6.096;2023-01-16T15:25:55;6;6;
47741;PMS5003;33504;52.066;6.096;2023-01-16T15:28:32;7;7;
47741;PMS5003;33504;52.066;6.096;2023-01-16T15:31:07;7;7;
47741;PMS5003;33504;52.066;6.096;2023-01-16T15:33:39;8;8;
47741;PMS5003;33504;52.066;6.096;2023-01-16T15:36:13;8;8;
47741;PMS5003;33504;52.066;6.096;2023-01-16T15:38:46;8;8;
47741;PMS5003;33504;52.066;6.096;2023-01-16T15:41:16;7;7;
47741;PMS5003;33504;52.066;6.096;2023-01-16T15:43:45;8;8;
47741;PMS5003;33504;52.066;6.096;2023-01-16T15:46:14;7;6;
47741;PMS5003;33504;52.066;6.096;2023-01-16T15:48:48;8;8;
47741;PMS5003;33504;52.066;6.096;2023-01-16T15:51:24;9;8;
47741;PMS5003;33504;52.066;6.096;2023-01-16T15:53:50;8;7;
47741;PMS5003;33504;52.066;6.096;2023-01-16T15:56:18;10;9;
47741;PMS5003;33504;52.066;6.096;2023-01-16T15:58:48;9;8;
47741;PMS5003;33504;52.066;6.096;2023-01-16T16:01:23;8;6;
47741;PMS5003;33504;52.066;6.096;2023-01-16T16:03:51;10;8;
47741;PMS5003;33504;52.066;6.096;2023-01-16T16:06:19;8;8;
47741;PMS5003;33504;52.066;6.096;2023-01-16T16:08:47;9;8;
47741;PMS5003;33504;52.066;6.096;2023-01-16T16:11:17;10;9;
47741;PMS5003;33504;52.066;6.096;2023-01-16T16:13:45;8;8;
47741;PMS5003;33504;52.066;6.096;2023-01-16T16:16:15;13;10;
47741;PMS5003;33504;52.066;6.096;2023-01-16T16:19:00;11;10;
47741;PMS5003;33504;52.066;6.096;2023-01-16T16:21:28;9;9;
47741;PMS5003;33504;52.066;6.096;2023-01-16T16:23:59;12;12;
47741;PMS5003;33504;52.066;6.096;2023-01-16T16:26:28;12;11;
47741;PMS5003;33504;52.066;6.096;2023-01-16T16:28:58;9;9;
47741;PMS5003;33504;52.066;6.096;2023-01-16T16:31:26;11;11;
47741;PMS5003;33504;52.066;6.096;2023-01-16T16:33:57;11;11;
47741;PMS5003;33504;52.066;6.096;2023-01-16T16:36:26;13;13;
47741;PMS5003;33504;52.066;6.096;2023-01-16T16:38:54;14;14;
47741;PMS5003;33504;52.066;6.096;2023-01-16T16:41:42;14;13;
47741;PMS5003;33504;52.066;6.096;2023-01-16T16:44:13;12;12;
47741;PMS5003;33504;52.066;6.096;2023-01-16T16:46:49;15;15;
47741;PMS5003;33504;52.066;6.096;2023-01-16T16:49:34;11;11;
47741;PMS5003;33504;52.066;6.096;2023-01-16T16:52:34;15;14;
47741;PMS5003;33504;52.066;6.096;2023-01-16T16:55:03;8;8;
47741;PMS5003;33504;52.066;6.096;2023-01-16T16:57:34;6;6;
47741;PMS5003;33504;52.066;6.096;2023-01-16T17:00:09;6;6;
47741;PMS5003;33504;52.066;6.096;2023-01-16T17:02:42;14;13;
47741;PMS5003;33504;52.066;6.096;2023-01-16T17:05:11;6;6;
47741;PMS5003;33504;52.066;6.096;2023-01-16T17:07:40;6;6;
47741;PMS5003;33504;52.066;6.096;2023-01-16T17:10:11;6;6;